Kansas City, Missouri
Traffic Map
Current Weather Conditions
Kansas City, Missouri
Overcast
Overcast
14°
Feels Like: 14°
Wind Chill: 14° Ceiling: 11000
Heat Index: 14° Visibility: 10mi
Dew Point: Wind: 9mph
Humidity: 42% Direction: 110° (ESE)
Pressure: 29.99in Gusts: 0mph
Raw Report DataKMKC 230954Z 11008KT 10SM OVC110 14/01 A2999 RMK AO2 SLP152 T01390011
Traffic Incident Summary
Active as of:
Severity:
Category:
InformationThere was an issue retrieving the traffic information for this location. Please try a different location or try again shortly.
Advertisements
At Last! Intellicast now available for iPhone and Android